Time;durP1;ratioP1;P1;durP2;ratioP2;P2;SDS_P1;SDS_P2;PMS_P1;PMS_P2;Temp;Humidity;BMP_temperature;BMP_pressure;BME280_temperature;BME280_humidity;BME280_pressure;Samples;Min_cycle;Max_cycle;Signal;HPM_P1;HPM_P2
2021/06/12 00:00:12;;;;;;;19.80;14.13;;;;;;;;;;5019647;28;20190;-68
2021/06/12 00:02:39;;;;;;;22.83;15.00;;;;;;;;;;5021805;28;20279;-68
2021/06/12 00:05:06;;;;;;;24.13;16.10;;;;;;;;;;5016944;28;20190;-68
2021/06/12 00:07:32;;;;;;;23.60;16.13;;;;;;;;;;5017183;28;20327;-68
2021/06/12 00:09:57;;;;;;;26.20;16.73;;;;;;;;;;5016204;28;20249;-68
2021/06/12 00:12:22;;;;;;;24.60;15.57;;;;;;;;;;5017372;28;20641;-68
2021/06/12 00:14:48;;;;;;;24.73;16.63;;;;;;;;;;5020609;28;20623;-68
2021/06/12 00:17:14;;;;;;;22.85;17.13;;;;;;;;;;5013898;28;20305;-68
2021/06/12 00:19:39;;;;;;;24.65;16.70;;;;;;;;;;5023467;28;20178;-68
2021/06/12 00:22:05;;;;;;;25.40;16.55;;;;;;;;;;5012729;28;20190;-68
2021/06/12 00:24:30;;;;;;;24.65;16.75;;;;;;;;;;5023209;28;20621;-68
2021/06/12 00:26:55;;;;;;;27.80;17.58;;;;;;;;;;5017629;28;20272;-68
2021/06/12 00:29:20;;;;;;;26.48;17.02;;;;;;;;;;5021945;28;20255;-68
2021/06/12 00:31:46;;;;;;;23.83;17.85;;;;;;;;;;5021435;28;20308;-68
2021/06/12 00:34:11;;;;;;;27.25;18.02;;;;;;;;;;5016640;28;20198;-68
2021/06/12 00:36:36;;;;;;;24.58;16.60;;;;;;;;;;5016495;28;21573;-68
2021/06/12 00:39:03;;;;;;;24.42;16.65;;;;;;;;;;5018988;28;20256;-68
2021/06/12 00:41:28;;;;;;;25.10;17.50;;;;;;;;;;5018576;28;20691;-68
2021/06/12 00:43:54;;;;;;;23.50;17.20;;;;;;;;;;5011535;28;81394;-68
2021/06/12 00:46:19;;;;;;;23.02;17.05;;;;;;;;;;5020885;28;20190;-68
2021/06/12 00:48:46;;;;;;;25.55;18.17;;;;;;;;;;5019182;28;20205;-68
2021/06/12 00:51:12;;;;;;;24.60;16.92;;;;;;;;;;5020196;28;20190;-68
2021/06/12 00:53:41;;;;;;;23.48;17.48;;;;;;;;;;5017181;28;20232;-68
2021/06/12 00:56:14;;;;;;;24.05;17.63;;;;;;;;;;5014360;28;20550;-68
2021/06/12 00:58:44;;;;;;;22.55;16.83;;;;;;;;;;5016751;28;21503;-68
2021/06/12 01:01:15;;;;;;;27.13;17.60;;;;;;;;;;5017228;28;20228;-68
2021/06/12 01:03:41;;;;;;;27.13;18.42;;;;;;;;;;5018631;28;20636;-68
2021/06/12 01:06:17;;;;;;;23.45;17.65;;;;;;;;;;5018498;28;20195;-68
2021/06/12 01:08:43;;;;;;;22.75;17.60;;;;;;;;;;5014959;28;21230;-68
2021/06/12 01:11:10;;;;;;;26.58;17.33;;;;;;;;;;5018265;28;20218;-68
2021/06/12 01:14:02;;;;;;;24.30;18.52;;;;;;;;;;5013560;28;20205;-68
2021/06/12 01:16:44;;;;;;;26.55;17.08;;;;;;;;;;5021315;28;20186;-69
2021/06/12 01:19:37;;;;;;;26.00;18.52;;;;;;;;;;5014586;28;20297;-68
2021/06/12 01:22:11;;;;;;;27.45;18.77;;;;;;;;;;5016853;28;20246;-68
2021/06/12 01:24:59;;;;;;;28.08;18.70;;;;;;;;;;5015232;28;20642;-68
2021/06/12 01:27:42;;;;;;;26.17;17.88;;;;;;;;;;5021122;28;20240;-68
2021/06/12 01:30:16;;;;;;;26.05;18.48;;;;;;;;;;5014442;28;20190;-69
2021/06/12 01:32:53;;;;;;;27.27;19.15;;;;;;;;;;5022845;28;20211;-68
2021/06/12 01:35:37;;;;;;;27.58;19.05;;;;;;;;;;5012546;28;20191;-68
2021/06/12 01:38:06;;;;;;;25.98;17.48;;;;;;;;;;5019871;28;20200;-68
2021/06/12 01:40:34;;;;;;;29.30;19.17;;;;;;;;;;5019079;28;21150;-68
2021/06/12 01:43:02;;;;;;;26.75;18.15;;;;;;;;;;5019140;28;20183;-68
2021/06/12 01:45:28;;;;;;;22.85;17.60;;;;;;;;;;5015625;28;20303;-69
2021/06/12 01:47:55;;;;;;;22.88;17.77;;;;;;;;;;5019985;28;20189;-69
2021/06/12 01:50:23;;;;;;;27.25;18.60;;;;;;;;;;5015092;28;20194;-68
2021/06/12 01:52:49;;;;;;;23.48;17.80;;;;;;;;;;5021406;28;20213;-69
2021/06/12 01:55:17;;;;;;;26.23;18.02;;;;;;;;;;5017755;28;20183;-69
2021/06/12 01:57:43;;;;;;;26.40;18.58;;;;;;;;;;5017047;28;20206;-69
2021/06/12 02:00:11;;;;;;;25.90;17.27;;;;;;;;;;5019789;28;20928;-68
2021/06/12 02:02:40;;;;;;;28.92;16.85;;;;;;;;;;5015087;28;20197;-68
2021/06/12 02:05:07;;;;;;;25.23;18.67;;;;;;;;;;5017216;28;20194;-69
2021/06/12 02:07:34;;;;;;;25.38;17.20;;;;;;;;;;5012083;28;20187;-69
2021/06/12 02:10:00;;;;;;;25.70;17.98;;;;;;;;;;5021567;28;20647;-68
2021/06/12 02:12:28;;;;;;;25.42;17.73;;;;;;;;;;5014934;28;20202;-68
2021/06/12 02:14:56;;;;;;;24.27;17.60;;;;;;;;;;5019400;28;20627;-69
2021/06/12 02:17:22;;;;;;;25.33;18.25;;;;;;;;;;5010901;28;20198;-68
2021/06/12 02:19:48;;;;;;;26.23;18.73;;;;;;;;;;5020839;28;20230;-68
2021/06/12 02:22:15;;;;;;;24.85;17.98;;;;;;;;;;5011841;28;20645;-69
2021/06/12 02:24:41;;;;;;;27.08;18.65;;;;;;;;;;5020817;28;20199;-69
2021/06/12 02:27:08;;;;;;;26.05;18.55;;;;;;;;;;5013988;28;20182;-68
2021/06/12 02:29:35;;;;;;;25.83;18.23;;;;;;;;;;5022055;28;20228;-68
2021/06/12 02:32:05;;;;;;;24.45;19.10;;;;;;;;;;5018087;28;20205;-69
2021/06/12 02:34:32;;;;;;;26.85;19.30;;;;;;;;;;5013608;28;20201;-68
2021/06/12 02:36:57;;;;;;;27.90;19.55;;;;;;;;;;5017189;28;20179;-68
2021/06/12 02:39:23;;;;;;;27.23;19.88;;;;;;;;;;5013910;28;20593;-68
2021/06/12 02:41:48;;;;;;;23.65;17.02;;;;;;;;;;5018643;28;20701;-69
2021/06/12 02:44:13;;;;;;;23.98;18.15;;;;;;;;;;5016053;28;20288;-69
2021/06/12 02:46:41;;;;;;;26.13;18.83;;;;;;;;;;5023356;28;20182;-69
2021/06/12 02:49:09;;;;;;;28.58;18.05;;;;;;;;;;5014422;28;20194;-69
2021/06/12 02:51:43;;;;;;;28.40;18.75;;;;;;;;;;5014932;28;20195;-70
2021/06/12 02:54:08;;;;;;;23.88;18.67;;;;;;;;;;5014491;28;20574;-69
2021/06/12 02:56:35;;;;;;;24.17;17.65;;;;;;;;;;5020341;28;20190;-70
2021/06/12 02:59:04;;;;;;;28.15;20.45;;;;;;;;;;5016032;28;20189;-68
2021/06/12 03:01:30;;;;;;;28.02;19.83;;;;;;;;;;5016457;28;20237;-69
2021/06/12 03:03:56;;;;;;;27.08;19.95;;;;;;;;;;5016306;28;20186;-69
2021/06/12 03:06:23;;;;;;;27.95;20.98;;;;;;;;;;5019650;28;20272;-68
2021/06/12 03:08:50;;;;;;;23.85;19.00;;;;;;;;;;5023662;28;20182;-69
2021/06/12 03:11:17;;;;;;;30.10;20.77;;;;;;;;;;5014269;28;20797;-68
2021/06/12 03:13:46;;;;;;;28.23;21.23;;;;;;;;;;5023424;28;20205;-70
2021/06/12 03:16:14;;;;;;;28.98;20.98;;;;;;;;;;5012337;28;20235;-70
2021/06/12 03:18:44;;;;;;;31.10;22.10;;;;;;;;;;5019096;28;20194;-70
2021/06/12 03:21:10;;;;;;;28.77;22.00;;;;;;;;;;5011847;28;20205;-69
2021/06/12 03:23:36;;;;;;;27.90;21.20;;;;;;;;;;5020764;28;20554;-68
2021/06/12 03:26:01;;;;;;;28.70;20.05;;;;;;;;;;5010411;28;20201;-69
2021/06/12 03:28:30;;;;;;;29.08;20.55;;;;;;;;;;5015419;28;20260;-70
2021/06/12 03:30:55;;;;;;;31.30;21.50;;;;;;;;;;5013604;28;20201;-68
2021/06/12 03:33:21;;;;;;;28.00;20.30;;;;;;;;;;5019414;28;20202;-68
2021/06/12 03:35:47;;;;;;;31.80;22.08;;;;;;;;;;5011575;28;20287;-68
2021/06/12 03:38:13;;;;;;;28.65;21.33;;;;;;;;;;5023229;28;20179;-69
2021/06/12 03:40:39;;;;;;;33.50;20.67;;;;;;;;;;5017410;28;20228;-70
2021/06/12 03:43:07;;;;;;;31.75;21.65;;;;;;;;;;5014186;28;20186;-69
2021/06/12 03:45:34;;;;;;;26.80;19.52;;;;;;;;;;5018535;28;20332;-69
2021/06/12 03:48:02;;;;;;;31.33;20.48;;;;;;;;;;5018481;28;20196;-70
2021/06/12 03:50:27;;;;;;;35.25;22.23;;;;;;;;;;5020550;28;20244;-69
2021/06/12 03:52:54;;;;;;;26.27;21.05;;;;;;;;;;5013801;28;20666;-68
2021/06/12 03:55:20;;;;;;;29.50;20.15;;;;;;;;;;5020158;28;20183;-70
2021/06/12 03:57:47;;;;;;;30.90;21.40;;;;;;;;;;5016354;28;20552;-69
2021/06/12 04:00:13;;;;;;;28.00;20.13;;;;;;;;;;5020304;28;20182;-69
2021/06/12 04:02:39;;;;;;;29.75;20.80;;;;;;;;;;5017257;28;20208;-68
2021/06/12 04:05:06;;;;;;;30.83;21.65;;;;;;;;;;5017940;28;20269;-71
2021/06/12 04:07:31;;;;;;;32.13;21.48;;;;;;;;;;5021063;28;25719;-69
2021/06/12 04:09:56;;;;;;;30.60;21.38;;;;;;;;;;5021407;28;20175;-69
2021/06/12 04:12:22;;;;;;;29.20;21.17;;;;;;;;;;5025582;28;20650;-70
2021/06/12 04:14:48;;;;;;;33.47;23.40;;;;;;;;;;4997814;28;20270;-69
2021/06/12 04:17:15;;;;;;;33.10;22.73;;;;;;;;;;5003928;28;20191;-69
2021/06/12 04:19:41;;;;;;;32.03;23.10;;;;;;;;;;4994821;28;20926;-69
2021/06/12 04:22:07;;;;;;;32.85;22.77;;;;;;;;;;5000490;28;20270;-68
2021/06/12 04:24:33;;;;;;;34.65;24.40;;;;;;;;;;4997542;28;20197;-68
2021/06/12 04:26:59;;;;;;;36.53;24.60;;;;;;;;;;5004151;28;20198;-68
2021/06/12 04:29:24;;;;;;;33.80;25.02;;;;;;;;;;4996619;28;20198;-69
2021/06/12 04:31:50;;;;;;;33.22;24.20;;;;;;;;;;5003577;28;20301;-69
2021/06/12 04:34:15;;;;;;;33.95;24.70;;;;;;;;;;4996898;28;20217;-69
2021/06/12 04:36:40;;;;;;;38.70;26.33;;;;;;;;;;5003952;28;20197;-69
2021/06/12 04:39:06;;;;;;;32.85;24.33;;;;;;;;;;4998538;28;20192;-69
2021/06/12 04:41:31;;;;;;;31.30;23.80;;;;;;;;;;5002798;28;20225;-68
2021/06/12 04:43:57;;;;;;;36.45;25.10;;;;;;;;;;4998442;28;20241;-69
2021/06/12 04:46:22;;;;;;;34.10;24.40;;;;;;;;;;5002101;28;20186;-69
2021/06/12 04:48:47;;;;;;;35.88;24.83;;;;;;;;;;5006695;28;20175;-69
2021/06/12 04:51:13;;;;;;;34.60;25.45;;;;;;;;;;4996661;28;20286;-70
2021/06/12 04:53:38;;;;;;;36.47;25.75;;;;;;;;;;4999640;28;20284;-69
2021/06/12 04:56:04;;;;;;;37.15;26.13;;;;;;;;;;4995946;28;20254;-69
2021/06/12 04:58:29;;;;;;;35.70;25.17;;;;;;;;;;5001025;28;20283;-69
2021/06/12 05:00:54;;;;;;;34.40;25.23;;;;;;;;;;4996344;28;20439;-68
2021/06/12 05:03:20;;;;;;;34.63;25.02;;;;;;;;;;4999168;28;20269;-69
2021/06/12 05:05:49;;;;;;;32.50;24.52;;;;;;;;;;4993443;28;20206;-69
2021/06/12 05:08:16;;;;;;;37.30;25.15;;;;;;;;;;4996781;28;20215;-68
2021/06/12 05:10:41;;;;;;;39.25;25.77;;;;;;;;;;4997773;28;20276;-67
2021/06/12 05:13:07;;;;;;;34.13;26.23;;;;;;;;;;5003166;28;20237;-68
2021/06/12 05:15:33;;;;;;;38.40;25.67;;;;;;;;;;4997031;28;20194;-68
2021/06/12 05:18:03;;;;;;;38.95;26.23;;;;;;;;;;4999073;28;20187;-68
2021/06/12 05:20:29;;;;;;;34.92;25.77;;;;;;;;;;5001627;28;20957;-67
2021/06/12 05:22:54;;;;;;;36.25;25.48;;;;;;;;;;4997077;28;20218;-69
2021/06/12 05:25:20;;;;;;;36.47;24.95;;;;;;;;;;4996888;28;20651;-69
2021/06/12 05:27:45;;;;;;;36.25;24.88;;;;;;;;;;4993984;28;20728;-69
2021/06/12 05:30:11;;;;;;;39.90;25.15;;;;;;;;;;4995925;28;20206;-68
2021/06/12 05:32:36;;;;;;;37.08;24.80;;;;;;;;;;4997366;28;20371;-69
2021/06/12 05:35:02;;;;;;;37.60;24.50;;;;;;;;;;4998415;28;20580;-67
2021/06/12 05:37:27;;;;;;;35.00;24.95;;;;;;;;;;4995749;28;20198;-67
2021/06/12 05:39:53;;;;;;;35.50;24.33;;;;;;;;;;4307255;28;10000805;-68
2021/06/12 05:42:19;;;;;;;34.55;23.00;;;;;;;;;;4997573;28;20199;-68
2021/06/12 05:44:44;;;;;;;39.20;24.45;;;;;;;;;;5001765;28;21076;-70
2021/06/12 05:47:09;;;;;;;33.20;23.63;;;;;;;;;;5002271;28;20689;-69
2021/06/12 05:49:35;;;;;;;34.03;22.77;;;;;;;;;;5002244;28;20183;-68
2021/06/12 05:52:00;;;;;;;30.83;21.92;;;;;;;;;;5005246;28;20226;-68
2021/06/12 05:54:25;;;;;;;29.95;20.75;;;;;;;;;;5016458;28;20186;-68
2021/06/12 05:56:52;;;;;;;35.17;21.75;;;;;;;;;;5002145;28;20282;-68
2021/06/12 05:59:17;;;;;;;30.05;20.77;;;;;;;;;;5002561;28;20649;-68
2021/06/12 06:01:42;;;;;;;31.33;20.73;;;;;;;;;;5000518;28;20562;-70
2021/06/12 06:04:08;;;;;;;30.08;20.90;;;;;;;;;;4994136;28;20279;-71
2021/06/12 06:06:33;;;;;;;28.23;19.83;;;;;;;;;;4997449;28;20195;-70
2021/06/12 06:08:58;;;;;;;31.88;19.60;;;;;;;;;;4986648;28;20188;-68
2021/06/12 06:11:24;;;;;;;25.30;18.63;;;;;;;;;;5001133;28;20573;-69
2021/06/12 06:13:49;;;;;;;26.15;18.10;;;;;;;;;;4991185;28;20202;-68
2021/06/12 06:16:14;;;;;;;26.75;18.15;;;;;;;;;;5003433;28;20187;-67
2021/06/12 06:18:40;;;;;;;28.73;17.98;;;;;;;;;;5004927;28;20227;-67
2021/06/12 06:21:07;;;;;;;26.42;16.65;;;;;;;;;;4995915;28;20252;-70
2021/06/12 06:23:33;;;;;;;25.33;16.75;;;;;;;;;;4996445;28;20544;-69
2021/06/12 06:25:59;;;;;;;22.98;15.88;;;;;;;;;;4988626;28;20198;-72
2021/06/12 06:28:25;;;;;;;25.40;15.63;;;;;;;;;;4992567;28;20190;-69
2021/06/12 06:30:50;;;;;;;22.70;14.88;;;;;;;;;;4991362;28;20202;-69
2021/06/12 06:33:16;;;;;;;23.90;14.73;;;;;;;;;;4997928;28;20218;-69
2021/06/12 06:35:42;;;;;;;22.48;14.73;;;;;;;;;;4995680;28;20206;-69
2021/06/12 06:38:07;;;;;;;19.73;13.23;;;;;;;;;;4997982;28;20190;-71
2021/06/12 06:40:33;;;;;;;20.90;13.02;;;;;;;;;;4990328;28;20205;-72
2021/06/12 06:42:59;;;;;;;20.35;12.93;;;;;;;;;;4996319;28;20183;-68
2021/06/12 06:45:24;;;;;;;20.65;13.13;;;;;;;;;;4996040;28;20235;-68
2021/06/12 06:47:50;;;;;;;17.25;11.35;;;;;;;;;;4997001;28;20187;-70
2021/06/12 06:50:16;;;;;;;23.65;12.15;;;;;;;;;;4999335;28;20229;-69
2021/06/12 06:52:43;;;;;;;15.90;9.80;;;;;;;;;;4993173;28;20210;-68
2021/06/12 06:55:09;;;;;;;17.67;10.52;;;;;;;;;;4647809;28;10000166;-68
2021/06/12 06:57:35;;;;;;;18.67;11.32;;;;;;;;;;4993454;28;20317;-69
2021/06/12 07:00:01;;;;;;;13.85;8.55;;;;;;;;;;5000580;28;20323;-70
2021/06/12 07:02:26;;;;;;;11.85;8.70;;;;;;;;;;4997762;28;20332;-69
2021/06/12 07:04:51;;;;;;;13.30;7.93;;;;;;;;;;5000144;28;20191;-70
2021/06/12 07:07:18;;;;;;;14.73;7.90;;;;;;;;;;4994033;28;20202;-69
2021/06/12 07:09:43;;;;;;;13.13;8.10;;;;;;;;;;4995894;28;20218;-69
2021/06/12 07:12:10;;;;;;;14.40;7.63;;;;;;;;;;4997559;28;20230;-69
2021/06/12 07:14:37;;;;;;;12.52;6.97;;;;;;;;;;4999193;28;20201;-71
2021/06/12 07:17:03;;;;;;;9.60;6.10;;;;;;;;;;4997707;28;20688;-70
2021/06/12 07:19:29;;;;;;;11.75;6.03;;;;;;;;;;5001259;28;20194;-70
2021/06/12 07:21:54;;;;;;;11.05;6.03;;;;;;;;;;4999661;28;20186;-72
2021/06/12 07:24:19;;;;;;;10.63;6.40;;;;;;;;;;4990992;28;20288;-69
2021/06/12 07:26:45;;;;;;;8.63;5.47;;;;;;;;;;5003487;28;20333;-69
2021/06/12 07:29:11;;;;;;;10.13;5.78;;;;;;;;;;4995381;28;20657;-69
2021/06/12 07:31:38;;;;;;;9.27;4.75;;;;;;;;;;5004322;28;20187;-69
2021/06/12 07:34:05;;;;;;;7.43;4.30;;;;;;;;;;4993771;28;20203;-69
2021/06/12 07:36:31;;;;;;;9.18;4.65;;;;;;;;;;5002284;28;20630;-68
2021/06/12 07:38:56;;;;;;;10.70;3.92;;;;;;;;;;4995586;28;20187;-68
2021/06/12 07:41:22;;;;;;;7.97;4.28;;;;;;;;;;5004059;28;20187;-69
2021/06/12 07:43:48;;;;;;;9.10;4.18;;;;;;;;;;4996028;28;20250;-71
2021/06/12 07:46:13;;;;;;;9.70;4.15;;;;;;;;;;5001328;28;20198;-69
2021/06/12 07:48:39;;;;;;;9.13;3.78;;;;;;;;;;5017608;28;20178;-69
2021/06/12 07:51:05;;;;;;;6.70;4.18;;;;;;;;;;4999957;28;20202;-67
2021/06/12 07:53:30;;;;;;;9.73;3.80;;;;;;;;;;5002496;28;20202;-70
2021/06/12 07:55:56;;;;;;;8.60;4.40;;;;;;;;;;5002791;28;20195;-70
2021/06/12 07:58:21;;;;;;;7.93;4.15;;;;;;;;;;5003532;28;20738;-68
2021/06/12 08:00:46;;;;;;;6.25;4.18;;;;;;;;;;4996669;28;20214;-70
2021/06/12 08:03:12;;;;;;;7.90;3.75;;;;;;;;;;5000416;28;20261;-69
2021/06/12 08:05:37;;;;;;;7.35;4.43;;;;;;;;;;5001222;28;20210;-69
2021/06/12 08:08:03;;;;;;;7.90;4.28;;;;;;;;;;4999028;28;20218;-69
2021/06/12 08:10:29;;;;;;;5.35;3.95;;;;;;;;;;4998976;28;20205;-70
2021/06/12 08:12:54;;;;;;;9.43;4.50;;;;;;;;;;5002000;28;20207;-67
2021/06/12 08:15:20;;;;;;;7.60;3.85;;;;;;;;;;4999737;28;20202;-70
2021/06/12 08:17:45;;;;;;;8.20;4.22;;;;;;;;;;5001235;28;20191;-70
2021/06/12 08:20:11;;;;;;;7.35;4.63;;;;;;;;;;4995633;28;20182;-71
2021/06/12 08:22:37;;;;;;;6.78;4.30;;;;;;;;;;4999817;28;21203;-69
2021/06/12 08:25:04;;;;;;;8.35;4.22;;;;;;;;;;5002184;28;20193;-68
2021/06/12 08:27:29;;;;;;;6.75;3.58;;;;;;;;;;4994244;28;20195;-70
2021/06/12 08:29:55;;;;;;;5.60;3.40;;;;;;;;;;5002751;28;20194;-70
2021/06/12 08:32:20;;;;;;;13.10;2.83;;;;;;;;;;4995077;28;20211;-68
2021/06/12 08:34:46;;;;;;;5.97;2.80;;;;;;;;;;5003275;28;20198;-70
2021/06/12 08:37:11;;;;;;;9.25;3.10;;;;;;;;;;4996570;28;20183;-71
2021/06/12 08:39:37;;;;;;;7.10;2.80;;;;;;;;;;5004128;28;20183;-69
2021/06/12 08:42:03;;;;;;;5.72;2.67;;;;;;;;;;5001390;28;20405;-68
2021/06/12 08:44:29;;;;;;;5.45;2.70;;;;;;;;;;5005210;28;20745;-72
2021/06/12 08:46:55;;;;;;;5.00;3.05;;;;;;;;;;4997773;28;20320;-69
2021/06/12 08:49:21;;;;;;;6.35;2.97;;;;;;;;;;5000846;28;20284;-71
2021/06/12 08:51:46;;;;;;;5.70;2.63;;;;;;;;;;4997900;28;20203;-70
2021/06/12 08:54:20;;;;;;;5.82;3.13;;;;;;;;;;5001893;28;20525;-72
2021/06/12 08:56:46;;;;;;;5.35;2.72;;;;;;;;;;5005445;28;20190;-69
2021/06/12 08:59:13;;;;;;;5.05;2.63;;;;;;;;;;4997776;28;20195;-70
2021/06/12 09:01:40;;;;;;;6.32;3.00;;;;;;;;;;5001780;28;20235;-69
2021/06/12 09:04:05;;;;;;;8.45;2.78;;;;;;;;;;4996951;28;20195;-72
2021/06/12 09:06:31;;;;;;;7.78;3.42;;;;;;;;;;5005632;28;20319;-72
2021/06/12 09:09:00;;;;;;;7.22;2.90;;;;;;;;;;4997396;28;20197;-69
2021/06/12 09:11:26;;;;;;;3.03;2.28;;;;;;;;;;5004009;28;20202;-69
2021/06/12 09:13:54;;;;;;;7.40;2.67;;;;;;;;;;4995889;28;20549;-71
2021/06/12 09:16:36;;;;;;;5.72;2.35;;;;;;;;;;5002335;28;20179;-68
2021/06/12 09:19:20;;;;;;;5.40;2.65;;;;;;;;;;4993263;28;20205;-69
2021/06/12 09:21:48;;;;;;;6.55;2.60;;;;;;;;;;5002124;28;20183;-70
2021/06/12 09:24:25;;;;;;;8.68;2.75;;;;;;;;;;4992631;28;20194;-72
2021/06/12 09:26:59;;;;;;;6.20;2.63;;;;;;;;;;5000698;28;20733;-71
2021/06/12 09:29:36;;;;;;;5.93;2.70;;;;;;;;;;4994907;28;21493;-70
2021/06/12 09:32:23;;;;;;;6.03;3.00;;;;;;;;;;5001183;28;20211;-69
2021/06/12 09:34:51;;;;;;;7.93;3.42;;;;;;;;;;4994420;28;20706;-69
2021/06/12 09:37:22;;;;;;;8.02;2.90;;;;;;;;;;5001104;28;20179;-71
2021/06/12 09:40:01;;;;;;;6.65;3.33;;;;;;;;;;4997871;28;20210;-68
2021/06/12 09:42:52;;;;;;;7.82;3.13;;;;;;;;;;4996890;28;20175;-68
2021/06/12 09:45:32;;;;;;;7.20;3.58;;;;;;;;;;4995393;28;20234;-70
2021/06/12 09:48:15;;;;;;;6.32;3.38;;;;;;;;;;4997307;28;20176;-68
2021/06/12 09:50:43;;;;;;;7.15;2.40;;;;;;;;;;4994579;28;20260;-69
2021/06/12 09:53:20;;;;;;;6.70;2.65;;;;;;;;;;4994781;28;20206;-66
2021/06/12 09:55:47;;;;;;;13.57;2.80;;;;;;;;;;4995979;28;20605;-72
2021/06/12 09:58:13;;;;;;;7.95;2.20;;;;;;;;;;5000212;28;20286;-69
2021/06/12 10:00:47;;;;;;;4.78;2.53;;;;;;;;;;4994966;28;20203;-68
2021/06/12 10:03:19;;;;;;;5.82;2.22;;;;;;;;;;4994330;28;20190;-67
2021/06/12 10:05:45;;;;;;;4.82;2.40;;;;;;;;;;4993796;28;22754;-69
2021/06/12 10:08:14;;;;;;;5.97;2.33;;;;;;;;;;4998935;28;20206;-66
2021/06/12 10:10:41;;;;;;;7.90;2.60;;;;;;;;;;5015065;28;20699;-68
2021/06/12 10:13:07;;;;;;;5.30;2.60;;;;;;;;;;4993866;28;20206;-71
2021/06/12 10:15:34;;;;;;;7.70;2.58;;;;;;;;;;4999014;28;20180;-68
2021/06/12 10:18:02;;;;;;;7.45;2.72;;;;;;;;;;4990914;28;20211;-69
2021/06/12 10:20:28;;;;;;;7.28;2.60;;;;;;;;;;5001032;28;20198;-67
2021/06/12 10:22:55;;;;;;;6.05;2.55;;;;;;;;;;4995620;28;20195;-68
2021/06/12 10:25:22;;;;;;;9.23;2.67;;;;;;;;;;4997027;28;20218;-69
2021/06/12 10:27:48;;;;;;;4.95;2.72;;;;;;;;;;4991862;28;20281;-69
2021/06/12 10:30:17;;;;;;;6.78;2.67;;;;;;;;;;4998199;28;20271;-67
2021/06/12 10:32:45;;;;;;;6.50;2.97;;;;;;;;;;4997935;28;20611;-67
2021/06/12 10:35:11;;;;;;;8.15;2.85;;;;;;;;;;4999091;28;20690;-70
2021/06/12 10:38:12;;;;;;;6.13;2.60;;;;;;;;;;4993903;28;20277;-68
2021/06/12 10:40:50;;;;;;;7.57;2.40;;;;;;;;;;4997011;28;20171;-71
2021/06/12 10:43:26;;;;;;;11.52;3.20;;;;;;;;;;4994046;28;20187;-68
2021/06/12 10:46:04;;;;;;;6.00;2.78;;;;;;;;;;5005926;28;20269;-67
2021/06/12 10:48:39;;;;;;;9.35;2.83;;;;;;;;;;4996157;28;20198;-71
2021/06/12 10:51:05;;;;;;;5.90;2.53;;;;;;;;;;5006512;28;20225;-69
2021/06/12 10:53:34;;;;;;;11.90;2.70;;;;;;;;;;5006857;28;21599;-70
2021/06/12 10:56:33;;;;;;;6.57;2.63;;;;;;;;;;5009638;28;20602;-68
2021/06/12 10:58:58;;;;;;;11.18;3.10;;;;;;;;;;5000781;28;20212;-70
2021/06/12 11:01:24;;;;;;;9.82;2.35;;;;;;;;;;5005499;28;20209;-70
2021/06/12 11:06:39;;;;;;;6.68;1.95;;;;;;;;;;5003780;28;20202;-68
2021/06/12 11:09:14;;;;;;;5.80;2.30;;;;;;;;;;4997048;28;20190;-67
2021/06/12 11:11:43;;;;;;;5.70;1.77;;;;;;;;;;5003005;28;20187;-71
2021/06/12 11:14:20;;;;;;;7.07;1.90;;;;;;;;;;4997070;28;20662;-70
2021/06/12 11:17:04;;;;;;;6.35;2.25;;;;;;;;;;5025433;28;20296;-69
2021/06/12 11:19:33;;;;;;;5.22;1.73;;;;;;;;;;4997526;28;20186;-70
2021/06/12 11:22:36;;;;;;;8.00;1.70;;;;;;;;;;5002114;28;20270;-67
2021/06/12 11:25:07;;;;;;;7.07;2.00;;;;;;;;;;4999409;28;20249;-69
2021/06/12 11:27:34;;;;;;;5.32;1.58;;;;;;;;;;5001147;28;20186;-68
2021/06/12 11:30:19;;;;;;;5.82;1.83;;;;;;;;;;4996354;28;22979;-69
2021/06/12 11:32:55;;;;;;;7.85;2.13;;;;;;;;;;5006031;28;21012;-69
2021/06/12 11:35:59;;;;;;;6.30;1.60;;;;;;;;;;4995868;28;20655;-68
2021/06/12 11:38:30;;;;;;;4.90;1.75;;;;;;;;;;5001087;28;20176;-70
2021/06/12 11:41:00;;;;;;;7.43;2.08;;;;;;;;;;4997057;28;20299;-67
2021/06/12 11:43:36;;;;;;;3.85;1.75;;;;;;;;;;5002002;28;20188;-68
2021/06/12 11:46:19;;;;;;;5.72;2.08;;;;;;;;;;4999870;28;20198;-67
2021/06/12 11:48:47;;;;;;;6.70;2.00;;;;;;;;;;5001426;28;20180;-71
2021/06/12 11:51:15;;;;;;;4.93;1.90;;;;;;;;;;4997619;28;20186;-67
2021/06/12 11:53:42;;;;;;;5.53;2.17;;;;;;;;;;5002252;28;20225;-71
2021/06/12 11:56:08;;;;;;;6.13;1.92;;;;;;;;;;4995129;28;22428;-70
2021/06/12 11:58:33;;;;;;;5.50;1.95;;;;;;;;;;5006524;28;20183;-69
2021/06/12 12:00:59;;;;;;;5.07;1.60;;;;;;;;;;5000605;28;20277;-69
2021/06/12 12:03:24;;;;;;;6.40;1.90;;;;;;;;;;5012198;28;20213;-69
2021/06/12 12:05:58;;;;;;;6.10;1.92;;;;;;;;;;4999004;28;20195;-69
2021/06/12 12:08:23;;;;;;;5.95;1.50;;;;;;;;;;4997467;28;20206;-69
2021/06/12 12:10:57;;;;;;;5.35;1.70;;;;;;;;;;4999333;28;20785;-69
2021/06/12 12:13:36;;;;;;;6.40;1.55;;;;;;;;;;4993147;28;20659;-71
2021/06/12 12:16:06;;;;;;;6.82;1.98;;;;;;;;;;5000641;28;20672;-70
2021/06/12 12:18:45;;;;;;;8.40;1.70;;;;;;;;;;4997234;28;20198;-72
2021/06/12 12:21:10;;;;;;;5.30;1.83;;;;;;;;;;5003461;28;20194;-68
2021/06/12 12:23:36;;;;;;;7.82;2.45;;;;;;;;;;4653091;28;9999617;-72
2021/06/12 12:26:10;;;;;;;7.70;1.73;;;;;;;;;;5007691;28;20210;-70
2021/06/12 12:29:14;;;;;;;10.10;1.90;;;;;;;;;;4998557;28;20308;-68
2021/06/12 12:31:45;;;;;;;5.18;1.80;;;;;;;;;;5003593;28;20194;-72
2021/06/12 12:34:11;;;;;;;7.70;2.13;;;;;;;;;;5001271;28;20230;-70
2021/06/12 12:36:45;;;;;;;5.95;1.75;;;;;;;;;;5003932;28;20222;-72
2021/06/12 12:39:11;;;;;;;5.32;1.48;;;;;;;;;;4996054;28;20206;-74
2021/06/12 12:41:36;;;;;;;6.00;1.50;;;;;;;;;;5017402;28;20178;-72
2021/06/12 12:44:08;;;;;;;9.13;2.17;;;;;;;;;;4999179;28;20265;-71
2021/06/12 12:46:36;;;;;;;5.25;1.70;;;;;;;;;;5003806;28;20190;-69
2021/06/12 12:49:02;;;;;;;11.80;2.40;;;;;;;;;;5014230;28;20187;-70
2021/06/12 12:51:27;;;;;;;4.70;1.63;;;;;;;;;;4998032;28;20708;-69
2021/06/12 12:53:52;;;;;;;5.03;1.50;;;;;;;;;;4996023;28;20795;-69
2021/06/12 12:56:18;;;;;;;4.85;1.30;;;;;;;;;;5004777;28;20183;-70
2021/06/12 12:58:50;;;;;;;5.05;1.50;;;;;;;;;;5001202;28;20209;-69
2021/06/12 13:01:16;;;;;;;3.25;1.13;;;;;;;;;;4994900;28;20264;-67
2021/06/12 13:03:51;;;;;;;4.72;1.20;;;;;;;;;;5002349;28;20355;-71
2021/06/12 13:06:34;;;;;;;5.85;1.13;;;;;;;;;;4990788;28;20540;-69
2021/06/12 13:09:29;;;;;;;4.45;1.25;;;;;;;;;;5002681;28;20993;-72
2021/06/12 13:11:55;;;;;;;5.50;1.10;;;;;;;;;;5002242;28;20222;-69
2021/06/12 13:14:30;;;;;;;4.30;1.20;;;;;;;;;;5002042;28;20183;-71
2021/06/12 13:17:05;;;;;;;3.88;1.20;;;;;;;;;;4997340;28;20280;-67
2021/06/12 13:19:38;;;;;;;3.00;1.02;;;;;;;;;;5004349;28;20178;-71
2021/06/12 13:22:04;;;;;;;4.50;1.42;;;;;;;;;;4997226;28;20202;-70
2021/06/12 13:24:30;;;;;;;4.03;1.10;;;;;;;;;;5000503;28;20201;-72
2021/06/12 13:26:56;;;;;;;6.22;1.25;;;;;;;;;;4996066;28;20742;-71
2021/06/12 13:29:22;;;;;;;3.67;0.90;;;;;;;;;;5001639;28;20278;-70
2021/06/12 13:31:48;;;;;;;6.55;1.60;;;;;;;;;;5014510;28;20566;-71
2021/06/12 13:34:24;;;;;;;3.72;1.27;;;;;;;;;;5003078;28;20286;-67
2021/06/12 13:36:58;;;;;;;4.70;1.13;;;;;;;;;;4999454;28;20191;-67
2021/06/12 13:39:35;;;;;;;3.58;1.15;;;;;;;;;;5003752;28;20693;-67
2021/06/12 13:42:12;;;;;;;4.25;1.13;;;;;;;;;;4993201;28;20681;-67
2021/06/12 13:44:38;;;;;;;6.35;1.17;;;;;;;;;;5006154;28;20234;-67
2021/06/12 13:47:04;;;;;;;5.97;1.25;;;;;;;;;;5004150;28;20210;-66
2021/06/12 13:49:30;;;;;;;3.72;0.98;;;;;;;;;;5004814;28;20186;-67
2021/06/12 13:51:55;;;;;;;4.88;1.17;;;;;;;;;;5004108;28;20201;-69
2021/06/12 13:54:23;;;;;;;4.82;1.63;;;;;;;;;;5003657;28;21494;-70
2021/06/12 13:56:49;;;;;;;6.18;1.25;;;;;;;;;;5008477;28;20206;-70
2021/06/12 13:59:14;;;;;;;4.25;1.30;;;;;;;;;;4998119;28;20193;-68
2021/06/12 14:01:40;;;;;;;2.28;1.10;;;;;;;;;;5002187;28;20211;-69
2021/06/12 14:04:05;;;;;;;5.57;1.20;;;;;;;;;;4998997;28;20205;-68
2021/06/12 14:06:31;;;;;;;6.18;1.20;;;;;;;;;;5005127;28;20175;-67
2021/06/12 14:08:56;;;;;;;4.32;1.30;;;;;;;;;;4999396;28;20198;-70
2021/06/12 14:11:22;;;;;;;3.95;1.13;;;;;;;;;;5000894;28;20187;-70
2021/06/12 14:13:48;;;;;;;3.13;1.50;;;;;;;;;;5001610;28;20221;-70
2021/06/12 14:16:14;;;;;;;6.90;1.73;;;;;;;;;;5001781;28;20194;-66
2021/06/12 14:18:39;;;;;;;4.13;1.60;;;;;;;;;;4999194;28;20187;-68
2021/06/12 14:21:05;;;;;;;6.15;1.33;;;;;;;;;;5000864;28;20265;-67
2021/06/12 14:23:31;;;;;;;7.00;1.50;;;;;;;;;;5003636;28;21479;-67
2021/06/12 14:26:02;;;;;;;4.78;1.65;;;;;;;;;;5001524;28;20286;-67
2021/06/12 14:28:29;;;;;;;4.63;1.50;;;;;;;;;;5002257;28;20209;-67
2021/06/12 14:30:55;;;;;;;4.82;1.52;;;;;;;;;;4998778;28;20195;-67
2021/06/12 14:33:21;;;;;;;3.05;1.40;;;;;;;;;;5006008;28;20206;-68
2021/06/12 14:35:47;;;;;;;7.22;1.95;;;;;;;;;;5001526;28;20601;-66
2021/06/12 14:38:12;;;;;;;5.32;1.50;;;;;;;;;;5005705;28;20195;-66